createdAt,value
2022-08-29T00:00:01.112Z,20.10
2022-08-29T00:05:04.187Z,20.00
2022-08-29T00:10:09.534Z,20.10
2022-08-29T00:15:13.824Z,20.00
2022-08-29T00:20:20.482Z,20.00
2022-08-29T00:25:27.209Z,20.00
2022-08-29T00:30:29.742Z,19.90
2022-08-29T00:35:34.525Z,19.90
2022-08-29T00:40:42.487Z,19.90
2022-08-29T00:46:03.858Z,19.90
2022-08-29T00:51:20.175Z,19.90
2022-08-29T00:56:25.952Z,19.80
2022-08-29T01:01:28.421Z,19.80
2022-08-29T01:06:32.279Z,19.80
2022-08-29T01:11:36.924Z,19.80
2022-08-29T01:16:40.429Z,19.80
2022-08-29T01:21:50.416Z,19.80
2022-08-29T01:26:54.762Z,19.80
2022-08-29T01:31:58.085Z,19.80
2022-08-29T01:37:03.147Z,19.80
2022-08-29T01:42:09.716Z,19.80
2022-08-29T01:47:12.173Z,19.80
2022-08-29T01:52:17.685Z,19.80
2022-08-29T01:57:21.561Z,19.80
2022-08-29T02:02:27.744Z,19.70
2022-08-29T02:07:30.154Z,19.80
2022-08-29T02:12:35.388Z,19.70
2022-08-29T02:17:37.883Z,19.70
2022-08-29T02:22:41.400Z,19.70
2022-08-29T02:27:45.134Z,19.70
2022-08-29T02:32:47.572Z,19.70
2022-08-29T02:37:49.922Z,19.70
2022-08-29T02:42:53.886Z,19.70
2022-08-29T02:47:56.262Z,19.70
2022-08-29T02:52:58.939Z,19.60
2022-08-29T02:58:02.774Z,19.70
2022-08-29T03:03:05.215Z,19.70
2022-08-29T03:08:10.178Z,19.70
2022-08-29T03:13:14.220Z,19.70
2022-08-29T03:18:16.875Z,19.60
2022-08-29T03:23:19.329Z,19.60
2022-08-29T03:28:23.464Z,19.60
2022-08-29T03:33:25.830Z,19.70
2022-08-29T03:38:28.256Z,19.70
2022-08-29T03:43:32.099Z,19.70
2022-08-29T03:48:34.538Z,19.70
2022-08-29T03:53:37.318Z,19.70
2022-08-29T03:58:41.244Z,19.70
2022-08-29T04:03:43.604Z,19.70
2022-08-29T04:08:47.030Z,19.70
2022-08-29T04:13:52.489Z,19.70
2022-08-29T04:18:54.878Z,19.70
2022-08-29T04:23:57.343Z,19.70
2022-08-29T04:29:01.393Z,19.70
2022-08-29T04:34:04.997Z,19.70
2022-08-29T04:39:08.141Z,19.70
2022-08-29T04:44:13.103Z,19.70
2022-08-29T04:49:15.821Z,19.70
2022-08-29T04:54:18.277Z,19.70
2022-08-29T04:59:22.125Z,19.70
2022-08-29T05:04:24.534Z,19.70
2022-08-29T05:09:27.138Z,19.80
2022-08-29T05:14:31.220Z,19.80
2022-08-29T05:19:34.229Z,19.90
2022-08-29T05:24:37.508Z,19.90
2022-08-29T05:29:43.850Z,20.00
2022-08-29T05:34:47.944Z,20.20
2022-08-29T05:39:51.183Z,20.40
2022-08-29T05:44:55.214Z,20.70
2022-08-29T05:49:58.876Z,21.30
2022-08-29T05:55:01.921Z,22.00
2022-08-29T06:00:08.900Z,22.70
2022-08-29T06:05:11.556Z,23.50
2022-08-29T06:10:14.119Z,24.20
2022-08-29T06:15:17.947Z,24.80
2022-08-29T06:20:20.803Z,25.20
2022-08-29T06:25:38.526Z,25.60
2022-08-29T06:30:43.715Z,26.00
2022-08-29T06:35:46.097Z,26.30
2022-08-29T06:40:48.458Z,26.60
2022-08-29T06:45:52.626Z,26.80
2022-08-29T06:50:55.373Z,27.10
2022-08-29T06:56:03.027Z,27.40
2022-08-29T07:01:13.250Z,27.60
2022-08-29T07:06:18.051Z,27.70
2022-08-29T07:11:20.686Z,27.60
2022-08-29T07:16:26.195Z,27.40
2022-08-29T07:21:29.605Z,27.00
2022-08-29T07:26:34.567Z,26.60
2022-08-29T07:31:38.774Z,26.30
2022-08-29T07:36:41.377Z,26.10
2022-08-29T07:41:45.128Z,26.20
2022-08-29T07:46:54.055Z,26.30
2022-08-29T07:51:56.693Z,26.30
2022-08-29T07:56:59.150Z,26.10
2022-08-29T08:02:03.429Z,25.90
2022-08-29T08:07:06.502Z,25.70
2022-08-29T08:12:16.872Z,25.50
2022-08-29T08:17:21.028Z,25.30
2022-08-29T08:22:23.475Z,25.30
2022-08-29T08:27:25.818Z,25.20
2022-08-29T08:32:32.261Z,25.30
2022-08-29T08:37:35.811Z,25.40
2022-08-29T08:42:42.235Z,25.50
2022-08-29T08:47:51.143Z,25.60
2022-08-29T08:52:57.813Z,25.70
2022-08-29T08:58:03.236Z,25.90
2022-08-29T09:03:17.897Z,26.10
2022-08-29T09:08:31.853Z,26.20
2022-08-29T09:13:46.335Z,26.50
2022-08-29T09:18:52.842Z,26.70
2022-08-29T09:23:58.992Z,27.00
2022-08-29T09:29:01.374Z,27.20
2022-08-29T09:34:11.713Z,27.30
2022-08-29T09:39:22.368Z,27.30
2022-08-29T09:44:28.375Z,27.20
2022-08-29T09:49:32.388Z,27.10
2022-08-29T09:54:34.918Z,27.10
2022-08-29T09:59:40.376Z,27.10
2022-08-29T10:04:51.405Z,27.10
2022-08-29T10:09:59.892Z,27.00
2022-08-29T10:15:09.899Z,27.00
2022-08-29T10:20:13.861Z,27.00
2022-08-29T10:25:23.073Z,27.10
2022-08-29T10:30:29.898Z,27.40
2022-08-29T10:35:40.537Z,27.70
2022-08-29T10:40:47.519Z,27.90
2022-08-29T10:46:09.979Z,28.10
2022-08-29T10:51:22.087Z,28.30
2022-08-29T10:56:31.579Z,28.50
2022-08-29T11:01:39.551Z,28.60
2022-08-29T11:06:48.865Z,28.60
2022-08-29T11:12:04.512Z,28.70
2022-08-29T11:17:10.316Z,29.00
2022-08-29T11:22:19.711Z,29.30
2022-08-29T11:27:29.508Z,29.60
2022-08-29T11:32:41.101Z,29.80
2022-08-29T11:38:25.273Z,29.80
2022-08-29T11:43:37.335Z,29.90
2022-08-29T11:48:42.822Z,29.90
2022-08-29T11:53:45.361Z,29.80
2022-08-29T11:58:50.508Z,29.60
2022-08-29T12:03:54.949Z,29.40
2022-08-29T12:09:07.147Z,29.20
2022-08-29T12:14:34.258Z,29.00
2022-08-29T12:19:49.649Z,28.70
2022-08-29T12:24:57.465Z,28.50
2022-08-29T12:30:02.229Z,28.40
2022-08-29T12:35:35.375Z,28.60
2022-08-29T12:41:04.285Z,28.90
2022-08-29T12:46:13.488Z,29.20
2022-08-29T12:51:32.015Z,29.30
2022-08-29T12:56:43.381Z,29.40
2022-08-29T13:01:50.981Z,29.50
2022-08-29T13:07:00.957Z,29.80
2022-08-29T13:12:10.794Z,30.10
2022-08-29T13:17:16.701Z,30.30
2022-08-29T13:22:19.471Z,30.30
2022-08-29T13:27:23.640Z,30.40
2022-08-29T13:32:27.836Z,30.20
2022-08-29T13:37:32.412Z,30.10
2022-08-29T13:42:34.967Z,30.00
2022-08-29T13:48:01.929Z,29.80
2022-08-29T13:53:04.340Z,29.60
2022-08-29T13:58:06.785Z,29.40
2022-08-29T14:03:10.761Z,29.40
2022-08-29T14:08:14.202Z,29.40
2022-08-29T14:13:16.742Z,29.40
2022-08-29T14:18:20.594Z,29.50
2022-08-29T14:23:23.377Z,29.50
2022-08-29T14:28:25.805Z,29.50
2022-08-29T14:33:29.663Z,29.40
2022-08-29T14:38:32.429Z,29.40
2022-08-29T14:43:39.251Z,29.30
2022-08-29T14:48:43.800Z,29.20
2022-08-29T14:53:54.170Z,29.10
2022-08-29T14:58:57.736Z,29.10
2022-08-29T15:04:01.742Z,29.10
2022-08-29T15:09:04.903Z,28.90
2022-08-29T15:14:07.221Z,28.80
2022-08-29T15:24:33.550Z,28.50
2022-08-29T15:29:37.512Z,28.30
2022-08-29T15:34:42.567Z,28.10
2022-08-29T15:39:45.022Z,27.90
2022-08-29T15:44:47.491Z,27.60
2022-08-29T15:49:55.503Z,27.50
2022-08-29T15:54:58.030Z,27.50
2022-08-29T16:00:00.642Z,27.40
2022-08-29T16:05:05.800Z,27.40
2022-08-29T16:10:10.694Z,27.40
2022-08-29T16:15:14.287Z,27.30
2022-08-29T16:20:18.259Z,27.30
2022-08-29T16:25:20.959Z,27.20
2022-08-29T16:30:24.423Z,27.00
2022-08-29T16:35:28.419Z,26.80
2022-08-29T16:40:31.912Z,26.70
2022-08-29T16:45:34.628Z,26.60
2022-08-29T16:50:38.620Z,26.50
2022-08-29T16:55:41.071Z,26.40
2022-08-29T17:00:44.011Z,26.20
2022-08-29T17:05:47.915Z,26.10
2022-08-29T17:10:50.502Z,25.90
2022-08-29T17:15:53.102Z,25.80
2022-08-29T17:20:57.011Z,25.60
2022-08-29T17:26:00.839Z,25.40
2022-08-29T17:31:03.977Z,25.30
2022-08-29T17:36:10.459Z,25.10
2022-08-29T17:41:15.196Z,25.00
2022-08-29T17:46:20.213Z,24.70
2022-08-29T17:51:24.235Z,24.50
2022-08-29T17:56:38.294Z,24.40
2022-08-29T18:01:47.862Z,24.20
2022-08-29T18:06:51.820Z,24.10
2022-08-29T18:11:55.709Z,23.90
2022-08-29T18:16:58.233Z,23.80
2022-08-29T18:22:09.220Z,23.70
2022-08-29T18:27:11.702Z,23.60
2022-08-29T18:32:15.037Z,23.40
2022-08-29T18:37:18.935Z,23.30
2022-08-29T18:42:39.405Z,23.10
2022-08-29T18:47:43.404Z,23.00
2022-08-29T18:52:47.366Z,22.80
2022-08-29T18:57:51.852Z,22.60
2022-08-29T19:02:56.164Z,22.50
2022-08-29T19:08:03.614Z,22.30
2022-08-29T19:13:06.613Z,22.10
2022-08-29T19:18:10.157Z,22.00
2022-08-29T19:23:14.605Z,21.80
2022-08-29T19:28:18.715Z,21.60
2022-08-29T19:33:21.216Z,21.50
2022-08-29T19:38:25.060Z,21.30
2022-08-29T19:43:30.684Z,21.20
2022-08-29T19:48:33.206Z,21.10
2022-08-29T19:53:38.071Z,21.00
2022-08-29T19:58:40.513Z,20.90
2022-08-29T20:03:43.069Z,20.80
2022-08-29T20:08:49.688Z,20.70
2022-08-29T20:13:54.886Z,20.60
2022-08-29T20:18:58.037Z,20.50
2022-08-29T20:24:02.127Z,20.40
2022-08-29T20:29:09.266Z,20.30
2022-08-29T20:34:11.988Z,20.10
2022-08-29T20:39:18.529Z,20.00
2022-08-29T20:44:21.713Z,20.00
2022-08-29T20:49:26.283Z,19.90
2022-08-29T20:54:32.304Z,19.80
2022-08-29T20:59:35.910Z,19.70
2022-08-29T21:04:42.244Z,19.70
2022-08-29T21:09:47.424Z,19.60
2022-08-29T21:14:51.797Z,19.60
2022-08-29T21:19:54.596Z,19.50
2022-08-29T21:24:58.587Z,19.50
2022-08-29T21:30:00.991Z,19.40
2022-08-29T21:35:03.695Z,19.40
2022-08-29T21:40:09.442Z,19.30
2022-08-29T21:45:12.422Z,19.30
2022-08-29T21:50:14.810Z,19.20
2022-08-29T21:55:20.532Z,19.10
2022-08-29T22:00:26.723Z,19.00
2022-08-29T22:11:37.665Z,18.80
2022-08-29T22:16:40.553Z,18.80
2022-08-29T22:21:46.949Z,18.70
2022-08-29T22:26:50.698Z,18.60
2022-08-29T22:31:53.160Z,18.60
2022-08-29T22:36:55.557Z,18.60
2022-08-29T22:41:59.416Z,18.50
2022-08-29T22:47:02.304Z,18.50
2022-08-29T22:52:04.840Z,18.50
2022-08-29T22:57:10.938Z,18.50
2022-08-29T23:02:13.379Z,18.50
2022-08-29T23:07:16.338Z,18.40
2022-08-29T23:12:21.148Z,18.30
2022-08-29T23:17:23.442Z,18.20
2022-08-29T23:22:25.883Z,18.00
2022-08-29T23:27:32.349Z,17.90
2022-08-29T23:32:35.341Z,17.80
2022-08-29T23:37:37.753Z,17.80
2022-08-29T23:42:41.522Z,17.70
2022-08-29T23:47:44.048Z,17.70
2022-08-29T23:52:46.883Z,17.60
2022-08-29T23:57:50.863Z,17.50
